Hauptseite
METAR-TAF:

METAR-TAF

Flughäfen :

Frankfurt am Main, Deutschland

Flughafen Frankfurt am Main

Breite: 50-03N, Länge: 008-36E, Höhe: 111 m

Beobachtung

Neuester Wetterbericht von vor 16 Minuten, um 08:50 UTC
Wind 12 kt aus Südwest
Temperatur 17°C
Luftfeuchtigkeit 63%
Luftdruck 1019 hPa
Sichtweite 10 km oder mehr
Leicht bewölkt in der Höhe von 3200 ft

METAR: EDDF 190850Z 22012KT 9999 FEW032 17/10 Q1019 NOSIG

Zeit: 11:06 (09:06 UTC)

Prognose

Neuester Wetterbericht von vor 4 Stunden und 6 Minuten, um 05:00 UTC
Gültige Prognose vom 19 um 06 UTC bis 20 um 12 UTC
Wind 5 kt aus Südwest
Sichtweite 10 km oder mehr
Leicht bewölkt in der Höhe von 3500 ft
Übergehend zu
vom 19 um 07 UTC bis 19 um 10 UTC
Wind 12 kt aus West/Südwest
Übergehend zu
vom 19 um 18 UTC bis 19 um 20 UTC
Wind 6 kt aus West/Südwest

TAF: EDDF 190500Z 1906/2012 23005KT 9999 FEW035 BECMG 1907/1910 24012KT BECMG 1918/1920 24006KT

Wetterbeobachtungen und Prognosen von mehr als 4000 Flughäfen (METAR und TAF Bericht).

Die verfügbaren Stationen werden durch gelbe und rote Markierungen auf der Karte dargestellt.

Führen Sie die Maus auf sie, um den Namen der Station zu sehen.

Darauf klicken, um die Beobachtung von Wetterbeobachtungen und Prognosen zu sehen.

Um die Karte zu ändern : klicken Sie auf den grünen Tasten mit einem schwarzen Kreuz Zum Vergrößern, auf den grünen Button mit einem Gedankenstrich zu verkleinern, oder auf die grünen Pfeile für benachbarte Karten.


METAR-TAF: